Startpagina
METAR-TAF:

METAR-TAF

Vliegvelden :

Nouakchott, Mauritanië

Internationale luchthaven van Nouakchott

breedte: 18-18-36N, lengte: 015-58-11W, hoogte: 3 m

Actueel weer

Dit bericht is 28 minuten geleden gemaakt, om 08:00 UTC
Wind 11 kt uit het noordnoordwesten
Temperatuur 17°C
Vochtigheid 55%
Druk 1013 hPa
Zicht 10 km of meer
geen wolken onder 1500 m en geen cumulonimbus

METAR: GQNO 220800Z 34011KT CAVOK 17/08 Q1013 NOSIG

Tijdstip: 08:28 (08:28 UTC)

Verwachting

Dit bericht is 3 uur en het 28 minuten geleden gemaakt, om 05:00 UTC
Verwachting geldig van 22 om 06 UTC tot 23 om 12 UTC
Wind 14 kt uit het noorden
Zicht: 7000 m
Kans 30% :
Tijdelijke
van 22 om 14 UTC tot 22 om 20 UTC
Zicht: 4000 m
Stuifstof

TAF: GQNO 220500Z 2206/2312 36014KT 7000 NSC PROB30 TEMPO 2214/2220 4000 BLDU

Waarnemingen en weersverwachtingen van meer dan 4000 vliegvelden (METAR en TAF).

De beschikbare stations zijn de gele en rode punten op de kaart.

Ga met uw muis naar het station om de naam te zien.

Klik dan om waarnemingen en weersverwachtingen te zien.

kaart wijzigen: klik op de groene knoppen met een zwart kruis om in te zoomen, op de groene knop met een streepje om uit te zoomen of op de groene pijlen voor aangrenzende kaarten.


METAR-TAF: